sensor_id;sensor_type;location;lat;lon;timestamp;P1;durP1;ratioP1;P2;durP2;ratioP2
19560;SDS011;9927;47.792;10.616;2023-11-19T04:01:10;2.20;;;2.10;;
19560;SDS011;9927;47.792;10.616;2023-11-19T04:03:40;2.17;;;2.17;;
19560;SDS011;9927;47.792;10.616;2023-11-19T04:06:17;2.00;;;2.00;;
19560;SDS011;9927;47.792;10.616;2023-11-19T04:08:44;2.10;;;2.10;;
19560;SDS011;9927;47.792;10.616;2023-11-19T04:11:12;2.10;;;2.10;;
19560;SDS011;9927;47.792;10.616;2023-11-19T04:13:39;1.88;;;1.80;;
19560;SDS011;9927;47.792;10.616;2023-11-19T04:16:06;2.00;;;2.00;;
19560;SDS011;9927;47.792;10.616;2023-11-19T04:18:34;1.90;;;1.90;;
19560;SDS011;9927;47.792;10.616;2023-11-19T04:21:02;1.92;;;1.92;;
19560;SDS011;9927;47.792;10.616;2023-11-19T04:23:32;2.10;;;2.00;;
19560;SDS011;9927;47.792;10.616;2023-11-19T04:26:01;2.08;;;2.08;;
19560;SDS011;9927;47.792;10.616;2023-11-19T04:28:33;1.90;;;1.90;;
19560;SDS011;9927;47.792;10.616;2023-11-19T04:31:00;1.90;;;1.90;;
19560;SDS011;9927;47.792;10.616;2023-11-19T04:33:28;2.00;;;2.00;;
19560;SDS011;9927;47.792;10.616;2023-11-19T04:35:55;2.10;;;2.10;;
19560;SDS011;9927;47.792;10.616;2023-11-19T04:38:23;2.03;;;2.03;;
19560;SDS011;9927;47.792;10.616;2023-11-19T04:40:50;1.98;;;1.80;;
19560;SDS011;9927;47.792;10.616;2023-11-19T04:43:17;2.00;;;1.90;;
19560;SDS011;9927;47.792;10.616;2023-11-19T04:45:46;1.85;;;1.85;;
19560;SDS011;9927;47.792;10.616;2023-11-19T04:48:13;2.07;;;2.07;;
19560;SDS011;9927;47.792;10.616;2023-11-19T04:50:40;1.80;;;1.80;;
19560;SDS011;9927;47.792;10.616;2023-11-19T04:53:07;1.80;;;1.80;;
19560;SDS011;9927;47.792;10.616;2023-11-19T04:55:35;2.00;;;1.90;;
19560;SDS011;9927;47.792;10.616;2023-11-19T04:58:02;1.88;;;1.85;;
19560;SDS011;9927;47.792;10.616;2023-11-19T05:00:29;1.80;;;1.80;;
19560;SDS011;9927;47.792;10.616;2023-11-19T05:02:57;1.80;;;1.80;;
19560;SDS011;9927;47.792;10.616;2023-11-19T05:05:24;1.80;;;1.80;;
19560;SDS011;9927;47.792;10.616;2023-11-19T05:07:51;1.80;;;1.80;;
19560;SDS011;9927;47.792;10.616;2023-11-19T05:10:18;1.85;;;1.85;;
19560;SDS011;9927;47.792;10.616;2023-11-19T05:12:46;1.80;;;1.80;;
19560;SDS011;9927;47.792;10.616;2023-11-19T05:15:14;1.80;;;1.80;;
19560;SDS011;9927;47.792;10.616;2023-11-19T05:17:41;1.80;;;1.80;;
19560;SDS011;9927;47.792;10.616;2023-11-19T05:20:08;1.70;;;1.70;;
19560;SDS011;9927;47.792;10.616;2023-11-19T05:22:40;2.03;;;1.90;;
19560;SDS011;9927;47.792;10.616;2023-11-19T05:25:08;1.80;;;1.80;;
19560;SDS011;9927;47.792;10.616;2023-11-19T05:27:37;1.90;;;1.90;;
19560;SDS011;9927;47.792;10.616;2023-11-19T05:30:05;1.90;;;1.90;;
19560;SDS011;9927;47.792;10.616;2023-11-19T05:32:37;1.80;;;1.80;;
19560;SDS011;9927;47.792;10.616;2023-11-19T05:35:05;1.80;;;1.80;;
19560;SDS011;9927;47.792;10.616;2023-11-19T05:37:33;1.90;;;1.90;;
19560;SDS011;9927;47.792;10.616;2023-11-19T05:40:01;1.90;;;1.90;;
19560;SDS011;9927;47.792;10.616;2023-11-19T05:42:38;1.90;;;1.80;;
19560;SDS011;9927;47.792;10.616;2023-11-19T05:45:06;1.98;;;1.88;;
19560;SDS011;9927;47.792;10.616;2023-11-19T05:47:34;1.80;;;1.80;;
19560;SDS011;9927;47.792;10.616;2023-11-19T05:50:02;1.90;;;1.90;;
19560;SDS011;9927;47.792;10.616;2023-11-19T05:52:30;1.73;;;1.73;;
19560;SDS011;9927;47.792;10.616;2023-11-19T05:55:00;1.80;;;1.80;;
19560;SDS011;9927;47.792;10.616;2023-11-19T05:57:31;1.70;;;1.70;;
19560;SDS011;9927;47.792;10.616;2023-11-19T06:00:12;2.00;;;1.90;;
19560;SDS011;9927;47.792;10.616;2023-11-19T06:02:42;1.90;;;1.90;;
19560;SDS011;9927;47.792;10.616;2023-11-19T06:05:09;2.00;;;2.00;;
19560;SDS011;9927;47.792;10.616;2023-11-19T06:07:36;1.70;;;1.70;;
19560;SDS011;9927;47.792;10.616;2023-11-19T06:10:06;1.80;;;1.70;;
19560;SDS011;9927;47.792;10.616;2023-11-19T06:12:33;1.85;;;1.80;;
19560;SDS011;9927;47.792;10.616;2023-11-19T06:15:05;2.00;;;2.00;;
19560;SDS011;9927;47.792;10.616;2023-11-19T06:17:33;1.80;;;1.80;;
19560;SDS011;9927;47.792;10.616;2023-11-19T06:20:00;1.80;;;1.80;;
19560;SDS011;9927;47.792;10.616;2023-11-19T06:22:27;1.90;;;1.90;;
19560;SDS011;9927;47.792;10.616;2023-11-19T06:24:55;1.90;;;1.90;;
19560;SDS011;9927;47.792;10.616;2023-11-19T06:27:22;1.90;;;1.90;;
19560;SDS011;9927;47.792;10.616;2023-11-19T06:29:49;2.00;;;2.00;;
19560;SDS011;9927;47.792;10.616;2023-11-19T06:32:16;1.63;;;1.63;;
19560;SDS011;9927;47.792;10.616;2023-11-19T06:34:43;2.00;;;2.00;;
19560;SDS011;9927;47.792;10.616;2023-11-19T06:37:11;1.90;;;1.90;;
19560;SDS011;9927;47.792;10.616;2023-11-19T06:39:38;1.80;;;1.80;;
19560;SDS011;9927;47.792;10.616;2023-11-19T06:42:05;2.10;;;2.10;;
19560;SDS011;9927;47.792;10.616;2023-11-19T06:44:33;2.20;;;2.10;;
19560;SDS011;9927;47.792;10.616;2023-11-19T06:47:01;2.10;;;2.10;;
19560;SDS011;9927;47.792;10.616;2023-11-19T06:49:28;2.10;;;2.00;;
19560;SDS011;9927;47.792;10.616;2023-11-19T06:51:55;2.13;;;2.10;;
19560;SDS011;9927;47.792;10.616;2023-11-19T06:54:23;2.00;;;2.00;;
19560;SDS011;9927;47.792;10.616;2023-11-19T06:56:50;2.10;;;2.10;;
19560;SDS011;9927;47.792;10.616;2023-11-19T06:59:18;2.22;;;2.22;;
19560;SDS011;9927;47.792;10.616;2023-11-19T07:01:45;2.40;;;2.40;;
19560;SDS011;9927;47.792;10.616;2023-11-19T07:04:13;2.40;;;2.40;;
19560;SDS011;9927;47.792;10.616;2023-11-19T07:06:40;2.93;;;2.87;;
19560;SDS011;9927;47.792;10.616;2023-11-19T07:09:10;2.95;;;2.85;;
19560;SDS011;9927;47.792;10.616;2023-11-19T07:11:38;3.10;;;3.00;;
19560;SDS011;9927;47.792;10.616;2023-11-19T07:14:07;2.30;;;2.30;;
19560;SDS011;9927;47.792;10.616;2023-11-19T07:16:35;2.53;;;2.53;;
19560;SDS011;9927;47.792;10.616;2023-11-19T07:19:08;2.97;;;2.90;;
19560;SDS011;9927;47.792;10.616;2023-11-19T07:21:36;2.20;;;2.20;;
19560;SDS011;9927;47.792;10.616;2023-11-19T07:24:10;2.65;;;2.65;;
19560;SDS011;9927;47.792;10.616;2023-11-19T07:26:43;2.55;;;2.50;;
19560;SDS011;9927;47.792;10.616;2023-11-19T07:29:12;3.50;;;3.40;;
19560;SDS011;9927;47.792;10.616;2023-11-19T07:31:48;3.38;;;3.28;;
19560;SDS011;9927;47.792;10.616;2023-11-19T07:34:16;2.45;;;2.45;;
19560;SDS011;9927;47.792;10.616;2023-11-19T07:36:43;2.30;;;2.30;;
19560;SDS011;9927;47.792;10.616;2023-11-19T07:39:10;2.00;;;2.00;;
19560;SDS011;9927;47.792;10.616;2023-11-19T07:41:37;2.20;;;2.20;;
19560;SDS011;9927;47.792;10.616;2023-11-19T07:44:05;2.00;;;2.00;;
19560;SDS011;9927;47.792;10.616;2023-11-19T07:46:33;2.10;;;2.10;;
19560;SDS011;9927;47.792;10.616;2023-11-19T07:49:00;1.95;;;1.95;;
19560;SDS011;9927;47.792;10.616;2023-11-19T07:51:29;2.00;;;2.00;;
19560;SDS011;9927;47.792;10.616;2023-11-19T07:53:56;1.85;;;1.85;;
19560;SDS011;9927;47.792;10.616;2023-11-19T07:56:24;2.10;;;2.10;;
19560;SDS011;9927;47.792;10.616;2023-11-19T07:58:51;2.08;;;2.08;;
19560;SDS011;9927;47.792;10.616;2023-11-19T08:01:19;2.20;;;2.20;;
19560;SDS011;9927;47.792;10.616;2023-11-19T08:03:46;2.40;;;2.40;;
19560;SDS011;9927;47.792;10.616;2023-11-19T08:06:16;2.20;;;2.20;;
19560;SDS011;9927;47.792;10.616;2023-11-19T08:08:44;3.10;;;3.00;;
19560;SDS011;9927;47.792;10.616;2023-11-19T08:11:11;2.30;;;2.30;;
19560;SDS011;9927;47.792;10.616;2023-11-19T08:13:38;2.10;;;2.10;;
19560;SDS011;9927;47.792;10.616;2023-11-19T08:16:06;2.30;;;2.30;;
19560;SDS011;9927;47.792;10.616;2023-11-19T08:18:33;2.20;;;2.20;;
19560;SDS011;9927;47.792;10.616;2023-11-19T08:21:00;2.30;;;2.30;;
19560;SDS011;9927;47.792;10.616;2023-11-19T08:23:28;2.22;;;2.10;;
19560;SDS011;9927;47.792;10.616;2023-11-19T08:25:55;2.10;;;2.10;;
19560;SDS011;9927;47.792;10.616;2023-11-19T08:28:22;2.45;;;2.45;;
19560;SDS011;9927;47.792;10.616;2023-11-19T08:30:49;2.20;;;2.20;;
19560;SDS011;9927;47.792;10.616;2023-11-19T08:33:17;2.53;;;2.42;;
19560;SDS011;9927;47.792;10.616;2023-11-19T08:35:44;2.30;;;2.30;;
19560;SDS011;9927;47.792;10.616;2023-11-19T08:38:11;2.00;;;2.00;;
19560;SDS011;9927;47.792;10.616;2023-11-19T08:40:39;2.20;;;2.20;;
19560;SDS011;9927;47.792;10.616;2023-11-19T08:43:06;2.20;;;2.20;;
19560;SDS011;9927;47.792;10.616;2023-11-19T08:45:34;2.20;;;2.20;;
19560;SDS011;9927;47.792;10.616;2023-11-19T08:48:02;2.30;;;2.30;;
19560;SDS011;9927;47.792;10.616;2023-11-19T08:50:30;2.17;;;2.17;;
19560;SDS011;9927;47.792;10.616;2023-11-19T08:52:57;2.30;;;2.30;;
19560;SDS011;9927;47.792;10.616;2023-11-19T08:55:25;2.35;;;2.35;;
19560;SDS011;9927;47.792;10.616;2023-11-19T08:57:53;2.30;;;2.30;;
19560;SDS011;9927;47.792;10.616;2023-11-19T09:00:20;3.13;;;2.60;;
19560;SDS011;9927;47.792;10.616;2023-11-19T09:02:47;2.30;;;2.20;;
19560;SDS011;9927;47.792;10.616;2023-11-19T09:05:15;2.30;;;2.30;;
19560;SDS011;9927;47.792;10.616;2023-11-19T09:07:42;2.15;;;2.10;;
19560;SDS011;9927;47.792;10.616;2023-11-19T09:10:09;2.10;;;2.10;;
19560;SDS011;9927;47.792;10.616;2023-11-19T09:12:38;2.10;;;2.10;;
19560;SDS011;9927;47.792;10.616;2023-11-19T09:15:05;2.20;;;2.20;;
19560;SDS011;9927;47.792;10.616;2023-11-19T09:17:33;2.80;;;2.70;;
19560;SDS011;9927;47.792;10.616;2023-11-19T09:20:01;2.20;;;2.10;;
19560;SDS011;9927;47.792;10.616;2023-11-19T09:22:29;2.40;;;2.30;;
19560;SDS011;9927;47.792;10.616;2023-11-19T09:24:56;2.45;;;2.40;;
19560;SDS011;9927;47.792;10.616;2023-11-19T09:27:26;2.20;;;2.20;;
19560;SDS011;9927;47.792;10.616;2023-11-19T09:29:54;2.10;;;2.10;;
19560;SDS011;9927;47.792;10.616;2023-11-19T09:32:24;2.25;;;2.20;;
19560;SDS011;9927;47.792;10.616;2023-11-19T09:34:52;1.90;;;1.90;;
19560;SDS011;9927;47.792;10.616;2023-11-19T09:37:19;2.20;;;2.20;;
19560;SDS011;9927;47.792;10.616;2023-11-19T09:39:48;1.75;;;1.75;;
19560;SDS011;9927;47.792;10.616;2023-11-19T09:42:15;2.10;;;2.10;;
19560;SDS011;9927;47.792;10.616;2023-11-19T09:44:44;1.85;;;1.85;;
19560;SDS011;9927;47.792;10.616;2023-11-19T09:47:13;2.10;;;2.10;;
19560;SDS011;9927;47.792;10.616;2023-11-19T09:49:42;2.10;;;2.00;;
19560;SDS011;9927;47.792;10.616;2023-11-19T09:52:10;1.98;;;1.90;;
19560;SDS011;9927;47.792;10.616;2023-11-19T09:54:38;2.00;;;2.00;;
19560;SDS011;9927;47.792;10.616;2023-11-19T09:57:05;2.20;;;2.10;;
19560;SDS011;9927;47.792;10.616;2023-11-19T09:59:35;2.50;;;2.40;;
19560;SDS011;9927;47.792;10.616;2023-11-19T10:02:04;2.03;;;2.03;;
19560;SDS011;9927;47.792;10.616;2023-11-19T10:04:37;2.30;;;2.15;;
19560;SDS011;9927;47.792;10.616;2023-11-19T10:07:06;2.00;;;2.00;;
19560;SDS011;9927;47.792;10.616;2023-11-19T10:09:34;2.10;;;2.10;;
19560;SDS011;9927;47.792;10.616;2023-11-19T10:12:01;2.40;;;2.40;;
19560;SDS011;9927;47.792;10.616;2023-11-19T10:14:28;2.00;;;2.00;;
19560;SDS011;9927;47.792;10.616;2023-11-19T10:16:58;2.03;;;2.03;;
19560;SDS011;9927;47.792;10.616;2023-11-19T10:19:31;2.00;;;2.00;;
19560;SDS011;9927;47.792;10.616;2023-11-19T10:22:04;1.98;;;1.98;;
19560;SDS011;9927;47.792;10.616;2023-11-19T10:24:32;1.80;;;1.80;;
19560;SDS011;9927;47.792;10.616;2023-11-19T10:27:01;2.20;;;2.20;;
19560;SDS011;9927;47.792;10.616;2023-11-19T10:29:30;2.00;;;1.90;;
19560;SDS011;9927;47.792;10.616;2023-11-19T10:31:57;2.35;;;2.35;;
19560;SDS011;9927;47.792;10.616;2023-11-19T10:34:45;2.30;;;2.28;;
19560;SDS011;9927;47.792;10.616;2023-11-19T10:37:28;2.20;;;2.20;;
19560;SDS011;9927;47.792;10.616;2023-11-19T10:40:00;2.30;;;2.30;;
19560;SDS011;9927;47.792;10.616;2023-11-19T10:42:27;2.17;;;2.08;;
19560;SDS011;9927;47.792;10.616;2023-11-19T10:44:54;1.90;;;1.90;;
19560;SDS011;9927;47.792;10.616;2023-11-19T10:47:22;2.10;;;2.00;;
19560;SDS011;9927;47.792;10.616;2023-11-19T10:49:53;1.90;;;1.90;;
19560;SDS011;9927;47.792;10.616;2023-11-19T10:52:20;2.05;;;2.05;;
19560;SDS011;9927;47.792;10.616;2023-11-19T10:54:49;2.00;;;2.00;;
19560;SDS011;9927;47.792;10.616;2023-11-19T10:57:20;1.98;;;1.98;;
19560;SDS011;9927;47.792;10.616;2023-11-19T10:59:55;2.00;;;2.00;;
19560;SDS011;9927;47.792;10.616;2023-11-19T11:02:29;1.90;;;1.90;;
19560;SDS011;9927;47.792;10.616;2023-11-19T11:05:04;2.40;;;2.30;;
19560;SDS011;9927;47.792;10.616;2023-11-19T11:07:32;1.80;;;1.80;;
19560;SDS011;9927;47.792;10.616;2023-11-19T11:10:07;1.90;;;1.90;;
19560;SDS011;9927;47.792;10.616;2023-11-19T11:12:36;1.80;;;1.80;;
19560;SDS011;9927;47.792;10.616;2023-11-19T11:15:08;1.88;;;1.88;;
19560;SDS011;9927;47.792;10.616;2023-11-19T11:17:42;1.70;;;1.70;;
19560;SDS011;9927;47.792;10.616;2023-11-19T11:20:11;1.63;;;1.60;;
19560;SDS011;9927;47.792;10.616;2023-11-19T11:22:46;1.70;;;1.70;;
19560;SDS011;9927;47.792;10.616;2023-11-19T11:31:26;1.70;;;1.70;;
19560;SDS011;9927;47.792;10.616;2023-11-19T11:39:34;1.70;;;1.70;;
19560;SDS011;9927;47.792;10.616;2023-11-19T11:55:33;2.20;;;2.20;;
19560;SDS011;9927;47.792;10.616;2023-11-19T11:58:05;2.20;;;2.20;;
19560;SDS011;9927;47.792;10.616;2023-11-19T12:00:36;2.40;;;2.40;;
19560;SDS011;9927;47.792;10.616;2023-11-19T12:03:05;2.15;;;2.05;;
19560;SDS011;9927;47.792;10.616;2023-11-19T12:05:42;2.20;;;2.20;;
19560;SDS011;9927;47.792;10.616;2023-11-19T12:08:14;2.42;;;2.42;;
19560;SDS011;9927;47.792;10.616;2023-11-19T12:10:52;2.30;;;2.30;;
19560;SDS011;9927;47.792;10.616;2023-11-19T12:13:20;2.30;;;2.20;;
19560;SDS011;9927;47.792;10.616;2023-11-19T12:18:28;2.55;;;2.55;;
19560;SDS011;9927;47.792;10.616;2023-11-19T12:20:56;2.40;;;2.30;;
19560;SDS011;9927;47.792;10.616;2023-11-19T12:23:28;2.80;;;2.70;;
19560;SDS011;9927;47.792;10.616;2023-11-19T12:25:56;2.20;;;2.20;;
19560;SDS011;9927;47.792;10.616;2023-11-19T12:28:24;2.70;;;2.60;;
19560;SDS011;9927;47.792;10.616;2023-11-19T12:30:54;2.15;;;2.15;;
19560;SDS011;9927;47.792;10.616;2023-11-19T12:33:36;2.70;;;2.60;;
19560;SDS011;9927;47.792;10.616;2023-11-19T12:36:05;2.40;;;2.30;;
19560;SDS011;9927;47.792;10.616;2023-11-19T12:38:32;2.53;;;2.42;;
19560;SDS011;9927;47.792;10.616;2023-11-19T12:41:03;2.10;;;2.10;;
19560;SDS011;9927;47.792;10.616;2023-11-19T12:43:31;2.15;;;2.08;;
19560;SDS011;9927;47.792;10.616;2023-11-19T12:45:58;2.00;;;2.00;;
19560;SDS011;9927;47.792;10.616;2023-11-19T12:48:25;2.10;;;2.10;;
19560;SDS011;9927;47.792;10.616;2023-11-19T12:50:56;2.40;;;2.30;;
19560;SDS011;9927;47.792;10.616;2023-11-19T12:53:25;2.53;;;2.53;;
19560;SDS011;9927;47.792;10.616;2023-11-19T12:55:53;5.07;;;4.80;;
19560;SDS011;9927;47.792;10.616;2023-11-19T12:58:33;6.47;;;5.95;;
19560;SDS011;9927;47.792;10.616;2023-11-19T13:01:03;3.70;;;3.60;;
19560;SDS011;9927;47.792;10.616;2023-11-19T13:03:33;2.42;;;2.42;;
19560;SDS011;9927;47.792;10.616;2023-11-19T13:06:02;2.72;;;2.67;;
19560;SDS011;9927;47.792;10.616;2023-11-19T13:08:38;2.60;;;2.60;;
19560;SDS011;9927;47.792;10.616;2023-11-19T13:11:31;3.20;;;3.10;;
19560;SDS011;9927;47.792;10.616;2023-11-19T13:14:05;3.58;;;3.47;;
19560;SDS011;9927;47.792;10.616;2023-11-19T13:16:36;2.58;;;2.47;;
19560;SDS011;9927;47.792;10.616;2023-11-19T13:19:04;2.40;;;2.25;;
19560;SDS011;9927;47.792;10.616;2023-11-19T13:21:32;2.08;;;1.98;;
19560;SDS011;9927;47.792;10.616;2023-11-19T13:23:59;2.10;;;2.10;;
19560;SDS011;9927;47.792;10.616;2023-11-19T13:26:26;2.00;;;2.00;;
19560;SDS011;9927;47.792;10.616;2023-11-19T13:28:54;1.90;;;1.90;;
19560;SDS011;9927;47.792;10.616;2023-11-19T13:31:21;2.30;;;2.30;;
19560;SDS011;9927;47.792;10.616;2023-11-19T13:33:49;2.10;;;2.10;;
19560;SDS011;9927;47.792;10.616;2023-11-19T13:36:16;2.38;;;2.30;;
19560;SDS011;9927;47.792;10.616;2023-11-19T13:38:44;2.35;;;2.35;;
19560;SDS011;9927;47.792;10.616;2023-11-19T13:41:11;2.00;;;2.00;;
19560;SDS011;9927;47.792;10.616;2023-11-19T13:43:40;2.20;;;2.20;;
19560;SDS011;9927;47.792;10.616;2023-11-19T13:46:07;2.00;;;2.00;;
19560;SDS011;9927;47.792;10.616;2023-11-19T13:48:38;2.50;;;2.50;;
19560;SDS011;9927;47.792;10.616;2023-11-19T13:51:05;1.80;;;1.80;;
19560;SDS011;9927;47.792;10.616;2023-11-19T13:53:33;2.13;;;2.03;;
19560;SDS011;9927;47.792;10.616;2023-11-19T13:56:17;2.20;;;2.20;;
19560;SDS011;9927;47.792;10.616;2023-11-19T13:58:45;1.90;;;1.90;;
19560;SDS011;9927;47.792;10.616;2023-11-19T14:01:12;2.35;;;2.25;;
19560;SDS011;9927;47.792;10.616;2023-11-19T14:03:40;2.30;;;2.30;;
19560;SDS011;9927;47.792;10.616;2023-11-19T14:06:09;2.75;;;2.75;;
19560;SDS011;9927;47.792;10.616;2023-11-19T14:08:36;2.75;;;2.75;;
19560;SDS011;9927;47.792;10.616;2023-11-19T14:11:04;2.78;;;2.67;;
19560;SDS011;9927;47.792;10.616;2023-11-19T14:13:32;2.25;;;2.25;;
19560;SDS011;9927;47.792;10.616;2023-11-19T14:15:59;2.10;;;2.10;;
19560;SDS011;9927;47.792;10.616;2023-11-19T14:18:27;2.10;;;2.10;;
19560;SDS011;9927;47.792;10.616;2023-11-19T14:20:55;2.15;;;2.10;;
19560;SDS011;9927;47.792;10.616;2023-11-19T14:23:22;2.13;;;2.10;;
19560;SDS011;9927;47.792;10.616;2023-11-19T14:25:50;2.10;;;2.10;;
19560;SDS011;9927;47.792;10.616;2023-11-19T14:28:18;2.30;;;2.30;;
19560;SDS011;9927;47.792;10.616;2023-11-19T14:30:46;2.10;;;2.00;;
19560;SDS011;9927;47.792;10.616;2023-11-19T14:33:16;2.00;;;2.00;;
19560;SDS011;9927;47.792;10.616;2023-11-19T14:35:44;2.00;;;2.00;;
19560;SDS011;9927;47.792;10.616;2023-11-19T14:38:11;2.30;;;2.20;;
19560;SDS011;9927;47.792;10.616;2023-11-19T14:40:39;2.50;;;2.40;;
19560;SDS011;9927;47.792;10.616;2023-11-19T14:43:09;2.17;;;2.17;;
19560;SDS011;9927;47.792;10.616;2023-11-19T14:45:37;2.40;;;2.30;;
19560;SDS011;9927;47.792;10.616;2023-11-19T14:48:15;2.10;;;2.10;;
19560;SDS011;9927;47.792;10.616;2023-11-19T14:50:44;2.00;;;2.00;;
19560;SDS011;9927;47.792;10.616;2023-11-19T14:53:12;2.30;;;2.20;;
19560;SDS011;9927;47.792;10.616;2023-11-19T14:55:39;2.10;;;2.00;;
19560;SDS011;9927;47.792;10.616;2023-11-19T14:58:06;2.10;;;2.10;;
19560;SDS011;9927;47.792;10.616;2023-11-19T15:00:37;2.00;;;2.00;;
19560;SDS011;9927;47.792;10.616;2023-11-19T15:03:05;2.20;;;2.20;;
19560;SDS011;9927;47.792;10.616;2023-11-19T15:05:33;1.98;;;1.98;;
19560;SDS011;9927;47.792;10.616;2023-11-19T15:08:01;1.90;;;1.90;;
19560;SDS011;9927;47.792;10.616;2023-11-19T15:10:29;2.30;;;2.20;;
19560;SDS011;9927;47.792;10.616;2023-11-19T15:12:57;2.00;;;2.00;;
19560;SDS011;9927;47.792;10.616;2023-11-19T15:15:24;2.00;;;2.00;;
19560;SDS011;9927;47.792;10.616;2023-11-19T15:17:55;2.58;;;2.50;;
19560;SDS011;9927;47.792;10.616;2023-11-19T15:20:22;2.00;;;1.90;;
19560;SDS011;9927;47.792;10.616;2023-11-19T15:22:49;2.00;;;2.00;;
19560;SDS011;9927;47.792;10.616;2023-11-19T15:25:17;2.28;;;2.00;;
19560;SDS011;9927;47.792;10.616;2023-11-19T15:27:44;2.22;;;2.13;;
19560;SDS011;9927;47.792;10.616;2023-11-19T15:30:11;2.13;;;2.10;;
19560;SDS011;9927;47.792;10.616;2023-11-19T15:32:39;2.10;;;2.10;;
19560;SDS011;9927;47.792;10.616;2023-11-19T15:35:11;2.15;;;2.15;;
19560;SDS011;9927;47.792;10.616;2023-11-19T15:37:40;1.98;;;1.95;;
19560;SDS011;9927;47.792;10.616;2023-11-19T15:40:11;2.10;;;2.10;;
19560;SDS011;9927;47.792;10.616;2023-11-19T15:42:40;2.13;;;2.10;;
19560;SDS011;9927;47.792;10.616;2023-11-19T15:45:07;1.90;;;1.90;;
19560;SDS011;9927;47.792;10.616;2023-11-19T15:47:35;1.85;;;1.85;;
19560;SDS011;9927;47.792;10.616;2023-11-19T15:50:02;2.10;;;2.10;;
19560;SDS011;9927;47.792;10.616;2023-11-19T15:52:31;3.58;;;2.53;;
19560;SDS011;9927;47.792;10.616;2023-11-19T15:54:58;2.53;;;2.00;;
19560;SDS011;9927;47.792;10.616;2023-11-19T15:57:26;2.60;;;2.50;;
19560;SDS011;9927;47.792;10.616;2023-11-19T15:59:53;2.38;;;2.20;;
19560;SDS011;9927;47.792;10.616;2023-11-19T16:02:21;2.70;;;2.60;;
19560;SDS011;9927;47.792;10.616;2023-11-19T16:04:48;2.90;;;2.60;;
19560;SDS011;9927;47.792;10.616;2023-11-19T16:07:17;3.40;;;3.20;;
19560;SDS011;9927;47.792;10.616;2023-11-19T16:09:44;2.40;;;2.30;;
19560;SDS011;9927;47.792;10.616;2023-11-19T16:12:11;2.50;;;2.50;;
19560;SDS011;9927;47.792;10.616;2023-11-19T16:14:39;2.72;;;2.70;;
19560;SDS011;9927;47.792;10.616;2023-11-19T16:17:08;2.88;;;2.78;;
19560;SDS011;9927;47.792;10.616;2023-11-19T16:19:35;2.50;;;2.40;;
19560;SDS011;9927;47.792;10.616;2023-11-19T16:22:03;2.55;;;2.45;;
19560;SDS011;9927;47.792;10.616;2023-11-19T16:24:37;2.50;;;2.50;;
19560;SDS011;9927;47.792;10.616;2023-11-19T16:27:04;3.50;;;3.30;;
19560;SDS011;9927;47.792;10.616;2023-11-19T16:29:32;2.53;;;2.50;;
19560;SDS011;9927;47.792;10.616;2023-11-19T16:31:59;2.80;;;2.70;;
19560;SDS011;9927;47.792;10.616;2023-11-19T16:34:26;2.85;;;2.50;;
19560;SDS011;9927;47.792;10.616;2023-11-19T16:36:54;2.80;;;2.70;;
19560;SDS011;9927;47.792;10.616;2023-11-19T16:39:21;2.88;;;2.78;;
19560;SDS011;9927;47.792;10.616;2023-11-19T16:41:49;2.67;;;2.60;;
19560;SDS011;9927;47.792;10.616;2023-11-19T16:44:17;3.03;;;2.85;;
19560;SDS011;9927;47.792;10.616;2023-11-19T16:46:44;2.20;;;2.20;;
19560;SDS011;9927;47.792;10.616;2023-11-19T16:49:12;2.40;;;2.30;;
19560;SDS011;9927;47.792;10.616;2023-11-19T16:51:44;2.20;;;2.20;;
19560;SDS011;9927;47.792;10.616;2023-11-19T16:54:12;2.30;;;2.30;;
19560;SDS011;9927;47.792;10.616;2023-11-19T16:56:43;2.40;;;2.40;;
19560;SDS011;9927;47.792;10.616;2023-11-19T16:59:10;2.50;;;2.40;;
19560;SDS011;9927;47.792;10.616;2023-11-19T17:01:38;2.72;;;2.63;;
19560;SDS011;9927;47.792;10.616;2023-11-19T17:04:05;2.30;;;2.30;;
19560;SDS011;9927;47.792;10.616;2023-11-19T17:06:34;2.30;;;2.30;;
19560;SDS011;9927;47.792;10.616;2023-11-19T17:09:04;2.78;;;2.67;;
19560;SDS011;9927;47.792;10.616;2023-11-19T17:11:31;2.30;;;2.30;;
19560;SDS011;9927;47.792;10.616;2023-11-19T17:13:59;2.55;;;2.30;;
19560;SDS011;9927;47.792;10.616;2023-11-19T17:16:26;2.80;;;2.67;;
19560;SDS011;9927;47.792;10.616;2023-11-19T17:18:55;2.40;;;2.30;;
19560;SDS011;9927;47.792;10.616;2023-11-19T17:21:22;2.72;;;2.63;;
19560;SDS011;9927;47.792;10.616;2023-11-19T17:23:51;2.75;;;2.60;;
19560;SDS011;9927;47.792;10.616;2023-11-19T17:26:19;2.60;;;2.50;;
19560;SDS011;9927;47.792;10.616;2023-11-19T17:28:46;2.88;;;2.78;;
19560;SDS011;9927;47.792;10.616;2023-11-19T17:31:14;2.30;;;2.30;;
19560;SDS011;9927;47.792;10.616;2023-11-19T17:33:41;2.30;;;2.30;;
19560;SDS011;9927;47.792;10.616;2023-11-19T17:36:08;2.95;;;2.70;;
19560;SDS011;9927;47.792;10.616;2023-11-19T17:38:36;2.45;;;2.40;;
19560;SDS011;9927;47.792;10.616;2023-11-19T17:41:03;2.40;;;2.30;;
19560;SDS011;9927;47.792;10.616;2023-11-19T17:43:31;2.40;;;2.40;;
19560;SDS011;9927;47.792;10.616;2023-11-19T17:45:58;2.22;;;2.22;;
19560;SDS011;9927;47.792;10.616;2023-11-19T17:48:28;2.20;;;2.10;;
19560;SDS011;9927;47.792;10.616;2023-11-19T17:50:55;2.47;;;2.30;;
19560;SDS011;9927;47.792;10.616;2023-11-19T17:53:24;2.70;;;2.60;;
19560;SDS011;9927;47.792;10.616;2023-11-19T17:55:51;2.75;;;2.65;;
19560;SDS011;9927;47.792;10.616;2023-11-19T17:58:19;2.67;;;2.63;;
19560;SDS011;9927;47.792;10.616;2023-11-19T18:00:46;5.13;;;2.57;;
19560;SDS011;9927;47.792;10.616;2023-11-19T18:03:13;2.60;;;2.50;;
19560;SDS011;9927;47.792;10.616;2023-11-19T18:05:41;2.40;;;2.40;;
19560;SDS011;9927;47.792;10.616;2023-11-19T18:08:08;2.70;;;2.50;;
19560;SDS011;9927;47.792;10.616;2023-11-19T18:10:39;2.40;;;2.30;;
19560;SDS011;9927;47.792;10.616;2023-11-19T18:13:06;2.90;;;2.70;;
19560;SDS011;9927;47.792;10.616;2023-11-19T18:15:33;2.60;;;2.58;;
19560;SDS011;9927;47.792;10.616;2023-11-19T18:18:03;2.37;;;2.37;;
19560;SDS011;9927;47.792;10.616;2023-11-19T18:20:31;2.60;;;2.40;;
19560;SDS011;9927;47.792;10.616;2023-11-19T18:22:58;3.10;;;2.50;;
19560;SDS011;9927;47.792;10.616;2023-11-19T18:25:27;2.78;;;2.70;;
19560;SDS011;9927;47.792;10.616;2023-11-19T18:27:55;2.72;;;2.63;;
19560;SDS011;9927;47.792;10.616;2023-11-19T18:30:22;2.63;;;2.42;;
19560;SDS011;9927;47.792;10.616;2023-11-19T18:32:50;3.00;;;2.90;;
19560;SDS011;9927;47.792;10.616;2023-11-19T18:35:17;2.33;;;2.30;;
19560;SDS011;9927;47.792;10.616;2023-11-19T18:37:50;2.50;;;2.50;;
19560;SDS011;9927;47.792;10.616;2023-11-19T18:40:18;2.67;;;2.43;;
19560;SDS011;9927;47.792;10.616;2023-11-19T18:42:48;2.47;;;2.38;;
19560;SDS011;9927;47.792;10.616;2023-11-19T18:45:20;2.30;;;2.30;;
19560;SDS011;9927;47.792;10.616;2023-11-19T18:47:48;2.20;;;2.10;;
19560;SDS011;9927;47.792;10.616;2023-11-19T18:50:19;2.60;;;2.40;;
19560;SDS011;9927;47.792;10.616;2023-11-19T18:52:48;2.28;;;2.20;;
19560;SDS011;9927;47.792;10.616;2023-11-19T18:55:15;2.40;;;2.30;;
19560;SDS011;9927;47.792;10.616;2023-11-19T18:57:42;2.77;;;2.30;;
19560;SDS011;9927;47.792;10.616;2023-11-19T19:00:10;2.40;;;2.40;;
19560;SDS011;9927;47.792;10.616;2023-11-19T19:02:38;2.50;;;2.30;;
19560;SDS011;9927;47.792;10.616;2023-11-19T19:05:06;2.50;;;2.40;;
19560;SDS011;9927;47.792;10.616;2023-11-19T19:07:34;2.50;;;2.40;;
19560;SDS011;9927;47.792;10.616;2023-11-19T19:10:01;2.72;;;2.60;;
19560;SDS011;9927;47.792;10.616;2023-11-19T19:12:29;2.50;;;2.47;;
19560;SDS011;9927;47.792;10.616;2023-11-19T19:14:57;2.50;;;2.40;;
19560;SDS011;9927;47.792;10.616;2023-11-19T19:17:29;2.42;;;2.33;;
19560;SDS011;9927;47.792;10.616;2023-11-19T19:19:57;2.50;;;2.40;;
19560;SDS011;9927;47.792;10.616;2023-11-19T19:22:27;2.30;;;2.30;;
19560;SDS011;9927;47.792;10.616;2023-11-19T19:24:54;2.13;;;2.13;;